Time;durP1;ratioP1;P1;durP2;ratioP2;P2;SDS_P1;SDS_P2;PMS_P1;PMS_P2;Temp;Humidity;BMP_temperature;BMP_pressure;BME280_temperature;BME280_humidity;BME280_pressure;Samples;Min_cycle;Max_cycle;Signal;HPM_P1;HPM_P2
2020/12/13 00:01:46;;;;;;;14.73;6.88;;;;;;;8.71;54.60;100107.06;5031131;28;20037;-68
2020/12/13 00:04:14;;;;;;;15.02;6.88;;;;;;;8.70;54.32;100110.78;5032818;28;20048;-68
2020/12/13 00:06:42;;;;;;;12.63;7.47;;;;;;;8.71;54.38;100106.22;5033040;28;20049;-68
2020/12/13 00:09:15;;;;;;;12.73;6.57;;;;;;;8.71;54.58;100111.66;5016696;28;20048;-68
2020/12/13 00:11:51;;;;;;;15.63;7.40;;;;;;;8.73;54.60;100117.81;5014590;28;20045;-69
2020/12/13 00:14:20;;;;;;;13.75;6.72;;;;;;;8.72;54.50;100110.66;5013547;28;20045;-68
2020/12/13 00:16:50;;;;;;;15.20;7.63;;;;;;;8.74;54.77;100112.22;5025926;28;20369;-69
2020/12/13 00:19:18;;;;;;;13.95;7.15;;;;;;;8.72;54.65;100116.97;5017074;28;20396;-69
2020/12/13 00:21:49;;;;;;;15.85;7.57;;;;;;;8.75;54.68;100116.69;5031500;28;20452;-69
2020/12/13 00:24:18;;;;;;;14.90;7.65;;;;;;;8.73;54.56;100126.00;5027058;28;20044;-69
2020/12/13 00:26:46;;;;;;;14.43;7.68;;;;;;;8.74;54.55;100122.28;5026926;28;20060;-69
2020/12/13 00:29:15;;;;;;;13.38;7.25;;;;;;;8.75;54.49;100122.13;5028838;28;20041;-69
2020/12/13 00:31:42;;;;;;;13.25;6.90;;;;;;;8.75;54.44;100119.41;5032229;28;20045;-69
2020/12/13 00:34:10;;;;;;;17.60;7.93;;;;;;;8.75;54.83;100118.53;5028667;28;20050;-69
2020/12/13 00:36:38;;;;;;;14.85;8.23;;;;;;;8.74;54.50;100134.03;5022788;28;20111;-68
2020/12/13 00:39:05;;;;;;;17.13;8.25;;;;;;;8.74;54.65;100134.03;5028324;28;20064;-69
2020/12/13 00:41:33;;;;;;;18.73;8.73;;;;;;;8.73;54.67;100143.22;5008159;28;20423;-68
2020/12/13 00:44:00;;;;;;;17.75;8.38;;;;;;;8.74;54.86;100144.94;5031048;28;20049;-68
2020/12/13 00:46:29;;;;;;;17.77;8.55;;;;;;;8.74;54.64;100142.22;5030995;28;20045;-68
2020/12/13 00:48:57;;;;;;;15.88;8.77;;;;;;;8.74;54.35;100146.81;5024272;28;20112;-68
2020/12/13 00:51:25;;;;;;;16.80;7.70;;;;;;;8.74;54.46;100149.53;5013382;28;20104;-68
2020/12/13 00:53:55;;;;;;;17.67;8.23;;;;;;;8.72;54.50;100157.88;5013722;28;20056;-68
2020/12/13 00:56:22;;;;;;;16.42;7.50;;;;;;;8.71;54.61;100164.34;5029948;28;20107;-68
2020/12/13 00:58:53;;;;;;;16.02;8.35;;;;;;;8.72;54.42;100163.34;5013777;28;20053;-67
2020/12/13 01:01:20;;;;;;;17.38;8.38;;;;;;;8.72;54.69;100163.34;5012729;28;20071;-68
2020/12/13 01:03:49;;;;;;;15.70;8.25;;;;;;;8.72;54.48;100168.78;5006277;28;20045;-67
2020/12/13 01:06:21;;;;;;;15.77;7.80;;;;;;;8.73;54.85;100173.22;5030138;28;20408;-68
2020/12/13 01:08:49;;;;;;;18.85;8.25;;;;;;;8.69;54.60;100181.81;5019836;28;20037;-68
2020/12/13 01:11:22;;;;;;;16.40;8.55;;;;;;;8.73;54.86;100183.25;5022770;28;20041;-68
2020/12/13 01:13:50;;;;;;;18.25;8.77;;;;;;;8.70;54.89;100186.28;5031344;28;20037;-68
2020/12/13 01:16:17;;;;;;;15.95;8.10;;;;;;;8.70;54.76;100181.69;5031198;28;20041;-68
2020/12/13 01:18:45;;;;;;;16.88;8.90;;;;;;;8.71;54.60;100179.84;5030499;28;20048;-67
2020/12/13 01:21:18;;;;;;;17.88;8.45;;;;;;;8.72;55.06;100187.88;5011764;28;20520;-68
2020/12/13 01:23:51;;;;;;;17.58;9.15;;;;;;;8.70;54.71;100189.00;5035722;28;20045;-68
2020/12/13 01:26:19;;;;;;;15.25;8.30;;;;;;;8.71;54.90;100201.66;5035826;28;20503;-68
2020/12/13 01:28:48;;;;;;;17.65;9.15;;;;;;;8.69;54.63;100198.19;5034403;28;20041;-67
2020/12/13 01:31:18;;;;;;;15.50;8.52;;;;;;;8.71;54.85;100198.91;5034816;28;20057;-68
2020/12/13 01:33:46;;;;;;;16.00;7.90;;;;;;;8.70;54.66;100199.91;5027511;28;20050;-67
2020/12/13 01:36:15;;;;;;;15.30;8.65;;;;;;;8.69;54.77;100204.50;5034722;28;20038;-68
2020/12/13 01:38:43;;;;;;;17.08;8.73;;;;;;;8.71;54.74;100205.25;5034337;28;20045;-67
2020/12/13 01:41:11;;;;;;;16.58;8.60;;;;;;;8.69;54.59;100190.00;5034646;28;20064;-67
2020/12/13 01:43:38;;;;;;;15.35;9.07;;;;;;;8.70;54.60;100200.78;5018945;28;20047;-68
2020/12/13 01:46:06;;;;;;;16.90;8.52;;;;;;;8.71;54.86;100213.41;5028810;28;20041;-67
2020/12/13 01:48:34;;;;;;;17.05;8.40;;;;;;;8.71;54.80;100210.69;5027996;28;20092;-68
2020/12/13 01:51:11;;;;;;;16.83;8.65;;;;;;;8.72;54.93;100211.56;5002584;28;20041;-68
2020/12/13 01:53:40;;;;;;;16.63;8.23;;;;;;;8.72;54.87;100217.00;5028390;28;20041;-67
2020/12/13 01:56:12;;;;;;;16.30;9.07;;;;;;;8.74;55.18;100225.88;5028073;28;20147;-68
2020/12/13 01:58:46;;;;;;;15.87;8.37;;;;;;;8.71;54.96;100226.19;5033882;28;20437;-67
2020/12/13 02:01:14;;;;;;;18.45;9.25;;;;;;;8.72;54.92;100230.66;5032824;28;20099;-68
2020/12/13 02:03:49;;;;;;;16.13;8.32;;;;;;;8.75;54.93;100228.50;5034597;28;20060;-68
2020/12/13 02:06:22;;;;;;;17.55;8.32;;;;;;;8.74;54.80;100228.63;5033426;28;20053;-67
2020/12/13 02:08:51;;;;;;;16.08;8.48;;;;;;;8.74;54.96;100234.94;5022782;28;20041;-67
2020/12/13 02:11:20;;;;;;;13.93;7.35;;;;;;;8.75;54.97;100239.41;5032968;28;20045;-68
2020/12/13 02:13:49;;;;;;;14.82;7.57;;;;;;;8.75;54.92;100242.13;5026684;28;20120;-68
2020/12/13 02:16:19;;;;;;;15.32;7.95;;;;;;;8.76;54.64;100245.72;5022217;28;20053;-67
2020/12/13 02:18:46;;;;;;;19.52;9.63;;;;;;;8.77;54.76;100247.44;5034160;28;20438;-68
2020/12/13 02:21:14;;;;;;;17.33;8.50;;;;;;;8.77;54.83;100250.19;5032947;28;20037;-68
2020/12/13 02:23:43;;;;;;;17.88;8.60;;;;;;;8.78;54.80;100250.03;5034064;28;20116;-68
2020/12/13 02:26:12;;;;;;;15.95;8.10;;;;;;;8.79;54.94;100253.63;5029508;28;20057;-68
2020/12/13 02:28:39;;;;;;;17.40;8.95;;;;;;;8.78;55.00;100257.38;5033689;28;20040;-68
2020/12/13 02:31:07;;;;;;;18.98;9.23;;;;;;;8.81;54.88;100274.28;5017863;28;20037;-68
2020/12/13 02:33:36;;;;;;;17.42;9.52;;;;;;;8.80;54.93;100271.72;5020196;28;20049;-68
2020/12/13 02:36:04;;;;;;;19.45;9.30;;;;;;;8.81;54.62;100281.63;5025744;28;20065;-68
2020/12/13 02:38:32;;;;;;;15.95;9.35;;;;;;;8.80;54.88;100282.66;5030393;28;20034;-68
2020/12/13 02:41:01;;;;;;;16.85;9.35;;;;;;;8.81;54.70;100287.94;5025115;28;20033;-68
2020/12/13 02:43:29;;;;;;;21.00;10.15;;;;;;;8.79;54.80;100292.69;5033195;28;20071;-69
2020/12/13 02:45:56;;;;;;;18.30;9.93;;;;;;;8.81;54.60;100292.53;5032658;28;20112;-68
2020/12/13 02:48:25;;;;;;;18.33;9.65;;;;;;;8.80;54.59;100291.69;5033801;28;20447;-68
2020/12/13 02:50:52;;;;;;;18.98;10.23;;;;;;;8.80;54.67;100282.66;5033420;28;20042;-68
2020/12/13 02:53:19;;;;;;;18.73;10.15;;;;;;;8.80;54.69;100288.09;5033435;28;20136;-68
2020/12/13 02:55:49;;;;;;;18.95;9.82;;;;;;;8.81;54.88;100292.53;5026046;28;20064;-68
2020/12/13 02:58:17;;;;;;;15.48;8.68;;;;;;;8.80;54.68;100294.41;5024006;28;20042;-68
2020/12/13 03:00:44;;;;;;;17.92;9.45;;;;;;;8.80;54.73;100302.59;5033348;28;20037;-68
2020/12/13 03:03:11;;;;;;;15.98;9.68;;;;;;;8.80;54.57;100299.00;5027910;28;20108;-68
2020/12/13 03:05:39;;;;;;;14.18;8.05;;;;;;;8.80;54.76;100308.06;5026966;28;20056;-68
2020/12/13 03:08:07;;;;;;;15.75;8.45;;;;;;;8.80;54.82;100302.59;5032883;28;20103;-68
2020/12/13 03:10:34;;;;;;;14.70;8.60;;;;;;;8.82;54.87;100305.16;5033105;28;20048;-68
2020/12/13 03:13:01;;;;;;;15.18;8.52;;;;;;;8.81;54.80;100300.69;5023769;28;20033;-68
2020/12/13 03:15:30;;;;;;;16.70;9.88;;;;;;;8.81;54.70;100311.63;5031310;28;20060;-68
2020/12/13 03:17:57;;;;;;;16.95;9.07;;;;;;;8.80;54.62;100309.91;5014729;28;20037;-68
2020/12/13 03:20:26;;;;;;;14.90;8.38;;;;;;;8.80;54.62;100312.63;5031765;28;20125;-68
2020/12/13 03:22:53;;;;;;;15.55;8.35;;;;;;;8.80;54.61;100312.63;5033005;28;20048;-68
2020/12/13 03:25:21;;;;;;;13.38;7.82;;;;;;;8.79;54.76;100314.50;5031843;28;20045;-68
2020/12/13 03:27:48;;;;;;;14.20;7.57;;;;;;;8.79;54.46;100313.63;5018196;28;20080;-68
2020/12/13 03:30:16;;;;;;;12.45;7.15;;;;;;;8.78;54.68;100323.69;5030951;28;20130;-68
2020/12/13 03:32:44;;;;;;;14.65;8.00;;;;;;;8.81;54.70;100323.38;5020039;28;20065;-68
2020/12/13 03:35:11;;;;;;;14.38;8.48;;;;;;;8.79;54.66;100328.13;5030096;28;20103;-68
2020/12/13 03:37:39;;;;;;;12.93;7.68;;;;;;;8.79;54.44;100322.69;5032393;28;20045;-68
2020/12/13 03:40:06;;;;;;;12.82;7.70;;;;;;;8.81;54.84;100330.69;5032033;28;20514;-68
2020/12/13 03:42:34;;;;;;;13.00;8.27;;;;;;;8.79;54.64;100336.31;5033142;28;20065;-68
2020/12/13 03:45:01;;;;;;;14.23;8.40;;;;;;;8.79;55.00;100340.91;5032019;28;20473;-68
2020/12/13 03:47:28;;;;;;;14.55;8.13;;;;;;;8.79;54.92;100335.44;5014497;28;20042;-68
2020/12/13 03:49:56;;;;;;;13.85;8.00;;;;;;;8.81;54.78;100339.75;5030407;28;20117;-68
2020/12/13 03:52:24;;;;;;;14.32;7.85;;;;;;;8.78;54.92;100339.16;5031976;28;20053;-68
2020/12/13 03:54:51;;;;;;;13.77;8.00;;;;;;;8.79;54.62;100343.63;5032907;28;20041;-68
2020/12/13 04:15:04;;;;;;;14.07;7.72;;;;;;;8.61;55.01;100368.78;5041413;28;20041;-67
2020/12/13 04:17:32;;;;;;;15.30;9.10;;;;;;;8.65;54.92;100374.81;5032998;28;20045;-67
2020/12/13 04:20:09;;;;;;;12.75;7.78;;;;;;;8.67;55.02;100371.94;5022719;28;20385;-67
2020/12/13 04:22:36;;;;;;;14.43;7.85;;;;;;;8.69;54.94;100375.41;5040431;28;20041;-67
2020/12/13 04:25:04;;;;;;;12.25;7.25;;;;;;;8.70;54.74;100380.75;5045074;28;20494;-67
2020/12/13 04:27:31;;;;;;;14.82;8.40;;;;;;;8.71;54.90;100382.47;5032343;28;20358;-67
2020/12/13 04:29:59;;;;;;;14.18;7.68;;;;;;;8.72;54.87;100381.50;5039695;28;20045;-67
2020/12/13 04:32:27;;;;;;;13.13;8.13;;;;;;;8.75;54.86;100383.06;5042655;28;20049;-67
2020/12/13 04:34:54;;;;;;;14.45;8.43;;;;;;;8.75;54.85;100380.34;5033266;28;20038;-67
2020/12/13 04:37:23;;;;;;;14.18;8.02;;;;;;;8.75;54.79;100373.03;5023548;28;20389;-67
2020/12/13 04:39:53;;;;;;;12.85;7.68;;;;;;;8.76;54.91;100380.22;5030280;28;20444;-67
2020/12/13 04:42:23;;;;;;;12.75;7.13;;;;;;;8.79;54.65;100373.63;5027095;28;20433;-67
2020/12/13 04:44:50;;;;;;;14.68;8.25;;;;;;;8.77;55.16;100371.03;5026707;28;20519;-67
2020/12/13 04:47:19;;;;;;;11.80;7.55;;;;;;;8.79;54.62;100390.00;5033233;28;20099;-67
2020/12/13 04:49:50;;;;;;;14.15;8.23;;;;;;;8.79;54.83;100385.41;5029923;28;20477;-67
2020/12/13 04:52:18;;;;;;;11.40;6.60;;;;;;;8.78;54.75;100389.13;5042050;28;20110;-67
2020/12/13 04:54:50;;;;;;;11.77;6.55;;;;;;;8.82;55.09;100395.16;5042827;28;20384;-67
2020/12/13 04:57:19;;;;;;;11.85;7.45;;;;;;;8.79;54.82;100399.03;5036252;28;20065;-67
2020/12/13 04:59:48;;;;;;;12.88;7.18;;;;;;;8.81;54.74;100401.63;5039449;28;20037;-67
2020/12/13 05:02:17;;;;;;;13.00;7.70;;;;;;;8.82;54.67;100412.41;5034180;28;20387;-67
2020/12/13 05:04:45;;;;;;;12.88;7.15;;;;;;;8.81;54.81;100402.47;5042641;28;20120;-67
2020/12/13 05:07:13;;;;;;;11.93;7.00;;;;;;;8.81;54.80;100405.22;5038695;28;20065;-67
2020/12/13 05:09:41;;;;;;;12.52;7.05;;;;;;;8.81;54.63;100415.25;5037519;28;20034;-67
2020/12/13 05:12:08;;;;;;;11.48;6.93;;;;;;;8.80;54.78;100417.16;5040401;28;20049;-67
2020/12/13 05:14:35;;;;;;;11.63;6.68;;;;;;;8.81;54.77;100417.97;5043642;28;20127;-67
2020/12/13 05:17:12;;;;;;;11.15;6.47;;;;;;;8.84;54.90;100432.22;5032376;28;20037;-67
2020/12/13 05:19:42;;;;;;;10.90;6.47;;;;;;;8.82;54.70;100425.16;5037109;28;20045;-67
2020/12/13 05:22:09;;;;;;;11.27;6.57;;;;;;;8.81;54.62;100431.63;5023129;28;20492;-67
2020/12/13 05:24:38;;;;;;;12.50;6.80;;;;;;;8.81;54.81;100431.63;5043937;28;20152;-67
2020/12/13 05:27:06;;;;;;;10.77;6.32;;;;;;;8.82;54.88;100438.81;5026419;28;20511;-67
2020/12/13 05:29:37;;;;;;;12.32;6.97;;;;;;;8.81;54.44;100447.97;5031296;28;20472;-67
2020/12/13 05:32:12;;;;;;;10.00;6.32;;;;;;;8.82;54.56;100439.66;5029551;28;20038;-67
2020/12/13 05:34:41;;;;;;;10.13;6.05;;;;;;;8.80;54.36;100454.47;5041494;28;20451;-67
2020/12/13 05:37:14;;;;;;;10.32;6.40;;;;;;;8.79;54.61;100453.59;5035174;28;20572;-67
2020/12/13 05:39:49;;;;;;;9.68;6.32;;;;;;;8.80;54.54;100459.91;5036144;28;20041;-67
2020/12/13 05:42:37;;;;;;;9.25;5.68;;;;;;;8.78;54.59;100465.50;5026044;28;20041;-67
2020/12/13 05:45:19;;;;;;;10.15;5.90;;;;;;;8.77;54.48;100462.88;5033048;28;20064;-67
2020/12/13 05:53:15;;;;;;;9.82;6.20;;;;;;;8.75;54.42;100457.56;5028573;28;20470;-67
2020/12/13 05:55:47;;;;;;;7.97;5.15;;;;;;;8.77;54.33;100463.75;5034438;28;20051;-67
2020/12/13 05:58:14;;;;;;;8.68;5.28;;;;;;;8.75;54.62;100462.16;5031107;28;20108;-67
2020/12/13 06:00:42;;;;;;;7.85;5.07;;;;;;;8.76;54.66;100470.19;5032105;28;20037;-67
2020/12/13 06:03:14;;;;;;;7.95;5.07;;;;;;;8.75;54.64;100463.00;5039307;28;20330;-67
2020/12/13 06:05:42;;;;;;;8.52;4.80;;;;;;;8.75;54.41;100473.91;5031368;28;20638;-67
2020/12/13 06:08:15;;;;;;;7.75;5.05;;;;;;;8.77;54.54;100468.34;5019543;28;20425;-68
2020/12/13 06:10:44;;;;;;;8.00;5.10;;;;;;;8.75;54.30;100470.31;5035788;28;20036;-68
2020/12/13 06:13:18;;;;;;;6.50;4.40;;;;;;;8.78;54.51;100470.06;5028418;28;20046;-69
2020/12/13 06:15:47;;;;;;;8.80;4.75;;;;;;;8.76;54.55;100477.50;5039111;28;20699;-70
2020/12/13 06:18:15;;;;;;;8.45;4.75;;;;;;;8.74;54.66;100479.50;5038007;28;20041;-71
2020/12/13 06:20:45;;;;;;;8.80;5.18;;;;;;;8.75;54.77;100483.97;5038035;28;20040;-69
2020/12/13 06:51:52;;;;;;;10.43;6.28;;;;;;;8.40;55.18;100516.88;5040310;28;20495;-68
2020/12/13 06:54:21;;;;;;;11.00;6.35;;;;;;;8.41;54.77;100533.09;5031290;28;20139;-68
2020/12/13 06:56:49;;;;;;;12.35;6.60;;;;;;;8.42;54.73;100533.97;5043198;28;20387;-68
2020/12/13 06:59:21;;;;;;;11.07;6.50;;;;;;;8.45;54.87;100537.34;5036280;28;20068;-68
2020/12/13 07:01:49;;;;;;;10.05;6.47;;;;;;;8.42;54.71;100533.97;5034382;28;20551;-68
2020/12/13 07:04:30;;;;;;;10.15;6.70;;;;;;;8.46;54.84;100539.09;5034577;28;20045;-68
2020/12/13 07:07:00;;;;;;;11.20;6.85;;;;;;;8.45;54.47;100536.47;5025324;28;20167;-67
2020/12/13 07:09:30;;;;;;;11.77;7.03;;;;;;;8.45;54.52;100536.47;5034771;28;20060;-68
2020/12/13 07:11:59;;;;;;;11.95;6.65;;;;;;;8.44;54.53;100543.78;5032041;28;20034;-68
2020/12/13 07:14:29;;;;;;;11.35;6.55;;;;;;;8.46;54.50;100540.94;5039544;28;20037;-68
2020/12/13 07:17:01;;;;;;;10.63;6.13;;;;;;;8.45;54.62;100537.34;5032188;28;20128;-67
2020/12/13 07:19:31;;;;;;;12.35;6.57;;;;;;;8.45;54.72;100542.81;5032169;28;20037;-67
2020/12/13 07:22:05;;;;;;;10.15;6.32;;;;;;;8.47;54.18;100545.41;5027406;28;20129;-68
2020/12/13 07:24:34;;;;;;;9.48;5.72;;;;;;;8.45;54.42;100548.25;5028011;28;20045;-67
2020/12/13 07:27:01;;;;;;;11.77;6.72;;;;;;;8.45;54.47;100550.13;5040435;28;20040;-67
2020/12/13 07:29:31;;;;;;;10.77;6.78;;;;;;;8.45;54.34;100550.97;5038849;28;20037;-67
2020/12/13 07:31:59;;;;;;;9.73;6.30;;;;;;;8.45;54.43;100563.75;5032658;28;20590;-67
2020/12/13 07:34:27;;;;;;;11.82;6.57;;;;;;;8.45;54.31;100567.34;5041116;28;20043;-68
2020/12/13 07:36:54;;;;;;;11.38;6.88;;;;;;;8.45;54.45;100572.78;5040447;28;20049;-67
2020/12/13 07:39:22;;;;;;;11.25;6.80;;;;;;;8.46;54.26;100568.22;5041034;28;20037;-67
2020/12/13 07:41:51;;;;;;;10.60;6.70;;;;;;;8.46;54.30;100573.66;5037596;28;20080;-68
2020/12/13 07:44:30;;;;;;;10.90;6.65;;;;;;;8.43;54.07;100576.59;5031386;28;20048;-67
2020/12/13 07:46:57;;;;;;;10.15;6.35;;;;;;;8.42;54.00;100574.84;5038685;28;20496;-67
2020/12/13 07:49:26;;;;;;;13.10;5.97;;;;;;;8.43;54.16;100579.31;5034817;28;20124;-67
2020/12/13 07:51:56;;;;;;;8.85;5.13;;;;;;;8.43;54.16;100582.94;5025370;28;20099;-68
2020/12/13 07:54:26;;;;;;;9.95;6.35;;;;;;;8.43;54.20;100595.66;5035783;28;20116;-68
2020/12/13 07:56:56;;;;;;;9.88;5.43;;;;;;;8.44;53.99;100597.44;5035226;28;20120;-68
2020/12/13 07:59:24;;;;;;;9.75;5.65;;;;;;;8.43;54.25;100601.13;5039176;28;20037;-68
2020/12/13 08:01:53;;;;;;;9.38;5.45;;;;;;;8.42;54.05;100592.06;5014983;28;20033;-68
2020/12/13 08:04:32;;;;;;;9.75;6.15;;;;;;;8.44;53.94;100605.63;5034607;28;20041;-67
2020/12/13 08:07:00;;;;;;;8.95;5.40;;;;;;;8.42;53.90;100602.09;5027256;28;20868;-67
2020/12/13 08:09:28;;;;;;;9.02;4.80;;;;;;;8.41;54.19;100598.50;5040144;28;20032;-67
2020/12/13 08:11:57;;;;;;;10.13;5.72;;;;;;;8.42;53.88;100599.38;5036964;28;20052;-67
2020/12/13 08:14:26;;;;;;;9.93;5.25;;;;;;;8.42;54.02;100604.84;5037039;28;20524;-68
2020/12/13 08:16:54;;;;;;;9.10;5.85;;;;;;;8.42;53.95;100607.56;5038113;28;20046;-67
2020/12/13 08:19:25;;;;;;;8.75;5.28;;;;;;;8.43;53.89;100609.28;5028899;28;20400;-67
2020/12/13 08:22:00;;;;;;;7.88;5.00;;;;;;;8.43;54.00;100618.38;5032349;28;20038;-68
2020/12/13 08:24:29;;;;;;;7.03;4.70;;;;;;;8.42;54.03;100623.91;5040454;28;20037;-67
2020/12/13 08:26:58;;;;;;;8.18;4.57;;;;;;;8.42;54.05;100618.47;5038701;28;20048;-67
2020/12/13 08:29:30;;;;;;;6.28;3.83;;;;;;;8.43;53.82;100633.81;5039590;28;20345;-68
2020/12/13 08:31:58;;;;;;;8.82;4.82;;;;;;;8.43;53.90;100628.38;5028319;28;20129;-68
2020/12/13 08:34:27;;;;;;;8.60;5.05;;;;;;;8.43;53.87;100639.28;5036637;28;20048;-68
2020/12/13 08:36:56;;;;;;;7.38;4.25;;;;;;;8.44;54.03;100632.88;5038901;28;20042;-68
2020/12/13 08:39:30;;;;;;;8.25;4.43;;;;;;;8.47;53.79;100632.63;5041756;28;20519;-68
2020/12/13 08:42:00;;;;;;;10.88;5.03;;;;;;;8.45;53.77;100629.16;5033113;28;20049;-68
2020/12/13 08:44:29;;;;;;;8.40;4.90;;;;;;;8.45;53.85;100640.06;5036904;28;20040;-68
2020/12/13 08:46:58;;;;;;;9.07;4.47;;;;;;;8.45;53.87;100635.47;5037565;28;20416;-68
2020/12/13 08:49:28;;;;;;;10.40;4.30;;;;;;;8.46;53.84;100645.41;5038799;28;20049;-68
2020/12/13 08:51:56;;;;;;;7.47;4.55;;;;;;;8.45;53.79;100651.84;5040184;28;20075;-68
2020/12/13 08:54:28;;;;;;;6.78;4.10;;;;;;;8.45;53.93;100653.69;5013096;28;20419;-70
2020/12/13 08:57:04;;;;;;;8.05;4.78;;;;;;;8.47;53.75;100659.91;5038130;28;20716;-67
2020/12/13 08:59:31;;;;;;;7.45;4.38;;;;;;;8.47;53.92;100660.78;5041134;28;20033;-67
2020/12/13 09:02:02;;;;;;;8.68;4.15;;;;;;;8.48;53.75;100676.09;5038439;28;20034;-68
2020/12/13 09:04:33;;;;;;;8.38;4.50;;;;;;;8.47;53.78;100671.66;5037658;28;20037;-67
2020/12/13 09:07:02;;;;;;;7.70;4.03;;;;;;;8.49;53.69;100680.56;5042864;28;20041;-68
2020/12/13 09:09:31;;;;;;;6.88;4.10;;;;;;;8.49;53.76;100686.03;5026015;28;20033;-68
2020/12/13 09:11:59;;;;;;;7.25;3.97;;;;;;;8.49;53.79;100683.28;5037719;28;20385;-68
2020/12/13 09:14:29;;;;;;;7.38;4.13;;;;;;;8.52;53.94;100695.81;5022311;28;20120;-68
2020/12/13 09:16:58;;;;;;;7.03;4.05;;;;;;;8.52;53.90;100690.38;5014208;28;20064;-68
2020/12/13 09:19:26;;;;;;;7.05;4.35;;;;;;;8.52;53.72;100693.97;5039609;28;20075;-68
2020/12/13 09:21:57;;;;;;;10.38;4.10;;;;;;;8.54;53.57;100696.56;5039956;28;20480;-68
2020/12/13 09:24:26;;;;;;;7.47;4.20;;;;;;;8.55;53.83;100693.72;5031014;28;20100;-68
2020/12/13 09:27:18;;;;;;;7.65;3.65;;;;;;;8.56;53.68;100700.88;5029894;28;20139;-67
2020/12/13 09:29:47;;;;;;;8.40;4.28;;;;;;;8.55;53.72;100704.63;5032311;28;20060;-67
2020/12/13 09:32:16;;;;;;;5.53;3.30;;;;;;;8.58;53.83;100711.69;5027188;28;20054;-69
2020/12/13 09:34:45;;;;;;;6.93;3.88;;;;;;;8.59;53.86;100711.56;5027469;28;20444;-70
2020/12/13 09:37:17;;;;;;;8.65;3.60;;;;;;;8.60;53.88;100712.44;5027790;28;20131;-70
2020/12/13 09:39:45;;;;;;;8.40;4.63;;;;;;;8.61;53.90;100715.03;5028589;28;20045;-68
2020/12/13 09:42:13;;;;;;;6.35;3.83;;;;;;;8.64;54.02;100722.94;5043725;28;20497;-68
2020/12/13 09:44:47;;;;;;;7.55;4.07;;;;;;;8.67;53.91;100715.53;5045278;28;20120;-68
2020/12/13 09:47:14;;;;;;;;;;;;;;;8.42;54.62;100722.03;5040590;28;20476;-68
2020/12/13 09:49:42;;;;;;;8.40;4.22;;;;;;;8.66;54.11;100721.97;5043734;28;19967;-67
2020/12/13 09:52:10;;;;;;;7.82;3.92;;;;;;;8.70;53.76;100727.06;5045072;28;20131;-68
2020/12/13 09:54:37;;;;;;;7.15;3.80;;;;;;;8.74;53.72;100723.09;5033858;28;20042;-68
2020/12/13 09:57:04;;;;;;;7.45;4.18;;;;;;;8.76;53.86;100722.97;5044609;28;20037;-68
2020/12/13 09:59:31;;;;;;;8.05;4.05;;;;;;;8.78;53.90;100726.44;5042799;28;20414;-68
2020/12/13 10:01:59;;;;;;;8.85;4.43;;;;;;;8.80;53.69;100727.19;5035874;28;20034;-68
2020/12/13 10:04:28;;;;;;;7.55;4.28;;;;;;;8.82;53.70;100727.91;5037548;28;20067;-67
2020/12/13 10:07:14;;;;;;;7.85;4.43;;;;;;;8.82;53.87;100731.50;5041423;28;20531;-68
2020/12/13 10:09:41;;;;;;;6.85;3.85;;;;;;;8.83;53.48;100730.53;5031714;28;20473;-68
2020/12/13 10:12:09;;;;;;;6.80;3.92;;;;;;;8.86;53.77;100743.94;5031571;28;20038;-67
2020/12/13 10:14:36;;;;;;;8.75;4.35;;;;;;;8.87;53.56;100748.41;5029631;28;20488;-68
2020/12/13 10:17:04;;;;;;;7.72;4.53;;;;;;;8.89;53.40;100746.38;5039958;28;20042;-67
2020/12/13 10:19:32;;;;;;;11.23;4.40;;;;;;;8.92;53.75;100737.09;5029085;28;20067;-67
2020/12/13 10:22:00;;;;;;;7.60;4.00;;;;;;;8.91;53.59;100733.50;5037198;28;20087;-67
2020/12/13 10:24:27;;;;;;;7.10;4.15;;;;;;;8.93;53.51;100736.09;5031571;28;20037;-67
2020/12/13 10:27:04;;;;;;;7.55;4.03;;;;;;;8.94;53.55;100735.13;5038592;28;20029;-67
2020/12/13 10:29:31;;;;;;;7.95;4.10;;;;;;;8.95;53.34;100729.53;5037459;28;20120;-67
2020/12/13 10:31:58;;;;;;;8.13;4.20;;;;;;;8.97;53.60;100732.16;5034744;28;20124;-67
2020/12/13 10:34:27;;;;;;;7.55;3.92;;;;;;;8.98;53.60;100742.03;5037161;28;20045;-67
2020/12/13 10:36:55;;;;;;;8.32;4.50;;;;;;;9.00;53.45;100738.22;5041955;28;20124;-67
2020/12/13 10:39:22;;;;;;;6.95;4.00;;;;;;;9.01;53.46;100739.94;5039907;28;20037;-67
2020/12/13 10:41:51;;;;;;;8.48;4.80;;;;;;;9.03;53.13;100738.97;5046308;28;20036;-67
2020/12/13 10:44:19;;;;;;;9.00;4.85;;;;;;;9.04;53.35;100735.25;5041030;28;20124;-67
2020/12/13 10:46:47;;;;;;;7.65;4.40;;;;;;;9.04;53.36;100738.84;5041281;28;20051;-67
2020/12/13 10:49:15;;;;;;;8.48;4.43;;;;;;;9.06;53.25;100747.75;5037501;28;20118;-67
2020/12/13 10:51:42;;;;;;;7.32;4.45;;;;;;;9.06;53.19;100735.97;5042677;28;20045;-67
2020/12/13 10:54:10;;;;;;;7.80;4.32;;;;;;;9.08;53.26;100750.34;5041696;28;20047;-68
2020/12/13 10:56:39;;;;;;;7.88;4.40;;;;;;;9.07;53.21;100737.69;5049505;28;20033;-67
2020/12/13 10:59:06;;;;;;;9.20;4.78;;;;;;;9.07;53.16;100727.66;5042000;28;20057;-67
2020/12/13 11:01:33;;;;;;;7.40;4.40;;;;;;;9.08;53.04;100736.72;5040999;28;20040;-67
2020/12/13 11:04:02;;;;;;;7.07;4.50;;;;;;;9.09;53.12;100735.72;5039857;28;20038;-67
2020/12/13 11:06:30;;;;;;;7.28;4.40;;;;;;;9.09;52.92;100731.13;5039628;28;20040;-67
2020/12/13 11:09:01;;;;;;;7.97;4.40;;;;;;;9.10;52.85;100723.81;5042938;28;20048;-67
2020/12/13 11:11:30;;;;;;;7.38;4.93;;;;;;;9.11;52.78;100726.41;5033738;28;20125;-67
2020/12/13 11:13:57;;;;;;;7.13;4.65;;;;;;;9.11;53.13;100731.88;5041284;28;20566;-69
2020/12/13 11:16:25;;;;;;;7.57;4.82;;;;;;;9.12;52.84;100728.16;5033931;28;20467;-68
2020/12/13 11:18:53;;;;;;;7.35;4.35;;;;;;;9.13;52.91;100721.72;5010406;28;20049;-68
2020/12/13 11:21:20;;;;;;;7.15;4.13;;;;;;;9.13;53.06;100720.84;5041311;28;20136;-68
2020/12/13 11:23:48;;;;;;;8.68;4.60;;;;;;;9.15;53.01;100718.81;5024691;28;20046;-68
2020/12/13 11:26:15;;;;;;;8.93;4.22;;;;;;;9.16;53.16;100724.16;5030484;28;20037;-67
2020/12/13 11:47:26;;;;;;;4.60;2.53;;;;;;;9.08;52.04;100699.38;5029714;28;20034;-67
2020/12/13 11:49:54;;;;;;;4.80;3.03;;;;;;;9.11;52.52;100695.53;5016480;28;20048;-67
2020/12/13 11:52:21;;;;;;;4.97;2.72;;;;;;;9.14;52.74;100696.13;5031738;28;20052;-68
2020/12/13 11:54:48;;;;;;;4.82;2.40;;;;;;;9.18;52.70;100697.63;5024991;28;20033;-69
2020/12/13 11:57:15;;;;;;;5.78;2.70;;;;;;;9.24;52.79;100704.41;5029410;28;20124;-68
2020/12/13 11:59:43;;;;;;;5.00;2.72;;;;;;;9.30;52.74;100712.97;5024307;28;20045;-69
2020/12/13 12:02:10;;;;;;;5.65;3.65;;;;;;;9.36;52.72;100698.81;5031717;28;20116;-68
2020/12/13 12:04:39;;;;;;;5.03;2.85;;;;;;;9.44;52.59;100708.22;5038602;28;20049;-68
2020/12/13 12:07:07;;;;;;;4.93;2.88;;;;;;;9.47;52.39;100711.56;5044760;28;20072;-69
2020/12/13 12:09:34;;;;;;;5.45;2.80;;;;;;;9.55;52.20;100702.72;5044396;28;20038;-68
2020/12/13 12:12:02;;;;;;;5.15;2.80;;;;;;;9.61;51.88;100710.41;5030862;28;20405;-68
2020/12/13 12:14:30;;;;;;;5.00;2.92;;;;;;;9.65;52.29;100701.81;5033186;28;20090;-68
2020/12/13 12:16:57;;;;;;;4.35;2.45;;;;;;;9.70;52.06;100702.34;5017640;28;20052;-67
2020/12/13 12:19:25;;;;;;;5.35;2.80;;;;;;;9.75;51.67;100699.19;5032367;28;20598;-67
2020/12/13 12:21:54;;;;;;;7.03;2.63;;;;;;;9.82;51.66;100710.47;5032623;28;20087;-68
2020/12/13 12:24:21;;;;;;;4.70;2.47;;;;;;;9.86;51.60;100714.69;5030209;28;20049;-68
2020/12/13 12:26:51;;;;;;;5.40;2.40;;;;;;;9.92;51.48;100715.00;5036812;28;20079;-68
2020/12/13 12:29:19;;;;;;;6.28;2.53;;;;;;;9.96;51.26;100704.69;5038866;28;20426;-68
2020/12/13 12:31:47;;;;;;;4.45;2.08;;;;;;;10.01;51.26;100711.50;5033786;28;20516;-71
2020/12/13 12:34:15;;;;;;;4.88;2.08;;;;;;;10.07;51.10;100712.81;5039632;28;20116;-67
2020/12/13 12:36:43;;;;;;;4.63;1.92;;;;;;;10.10;51.01;100716.16;5037327;28;20115;-67
2020/12/13 12:39:11;;;;;;;5.30;2.35;;;;;;;10.15;50.71;100713.03;5045813;28;20623;-67
2020/12/13 12:41:43;;;;;;;;;;;;;;;9.90;50.74;100718.88;5017689;28;20124;-67
2020/12/13 12:44:10;;;;;;;5.03;2.10;;;;;;;10.14;50.61;100711.28;5043914;28;20364;-67
2020/12/13 12:46:37;;;;;;;3.35;1.80;;;;;;;10.18;50.60;100712.75;5033702;28;20049;-66
2020/12/13 12:49:05;;;;;;;4.63;2.17;;;;;;;10.19;50.03;100709.03;5036994;28;20063;-67